sensor_id;sensor_type;location;lat;lon;timestamp;P1;durP1;ratioP1;P2;durP2;ratioP2
17141;SDS011;32805;53.556;9.944;2024-03-02T00:01:42;20.30;;;13.32;;
17141;SDS011;32805;53.556;9.944;2024-03-02T00:04:09;25.02;;;14.32;;
17141;SDS011;32805;53.556;9.944;2024-03-02T00:06:37;19.75;;;13.35;;
17141;SDS011;32805;53.556;9.944;2024-03-02T00:09:06;22.90;;;14.40;;
17141;SDS011;32805;53.556;9.944;2024-03-02T00:11:36;24.02;;;14.38;;
17141;SDS011;32805;53.556;9.944;2024-03-02T00:14:03;20.25;;;13.60;;
17141;SDS011;32805;53.556;9.944;2024-03-02T00:16:31;22.58;;;13.50;;
17141;SDS011;32805;53.556;9.944;2024-03-02T00:19:02;20.42;;;14.30;;
17141;SDS011;32805;53.556;9.944;2024-03-02T00:21:32;23.00;;;13.82;;
17141;SDS011;32805;53.556;9.944;2024-03-02T00:24:00;18.75;;;12.98;;
17141;SDS011;32805;53.556;9.944;2024-03-02T00:26:29;19.42;;;12.95;;
17141;SDS011;32805;53.556;9.944;2024-03-02T00:28:56;18.65;;;13.20;;
17141;SDS011;32805;53.556;9.944;2024-03-02T00:31:24;19.83;;;13.95;;
17141;SDS011;32805;53.556;9.944;2024-03-02T00:33:52;18.30;;;12.68;;
17141;SDS011;32805;53.556;9.944;2024-03-02T00:36:24;21.60;;;14.10;;
17141;SDS011;32805;53.556;9.944;2024-03-02T00:38:53;21.67;;;14.10;;
17141;SDS011;32805;53.556;9.944;2024-03-02T00:41:21;23.48;;;14.02;;
17141;SDS011;32805;53.556;9.944;2024-03-02T00:43:53;22.83;;;13.75;;
17141;SDS011;32805;53.556;9.944;2024-03-02T00:46:28;22.50;;;14.73;;
17141;SDS011;32805;53.556;9.944;2024-03-02T00:48:57;22.05;;;14.88;;
17141;SDS011;32805;53.556;9.944;2024-03-02T00:51:27;24.20;;;16.00;;
17141;SDS011;32805;53.556;9.944;2024-03-02T00:53:58;24.67;;;15.40;;
17141;SDS011;32805;53.556;9.944;2024-03-02T00:56:26;24.50;;;15.25;;
17141;SDS011;32805;53.556;9.944;2024-03-02T00:59:00;24.52;;;16.60;;
17141;SDS011;32805;53.556;9.944;2024-03-02T01:01:27;25.17;;;15.27;;
17141;SDS011;32805;53.556;9.944;2024-03-02T01:03:55;23.65;;;15.35;;
17141;SDS011;32805;53.556;9.944;2024-03-02T01:06:22;29.83;;;16.75;;
17141;SDS011;32805;53.556;9.944;2024-03-02T01:08:51;28.15;;;16.00;;
17141;SDS011;32805;53.556;9.944;2024-03-02T01:11:19;27.02;;;16.90;;
17141;SDS011;32805;53.556;9.944;2024-03-02T01:13:49;28.17;;;16.33;;
17141;SDS011;32805;53.556;9.944;2024-03-02T01:16:17;26.27;;;17.02;;
17141;SDS011;32805;53.556;9.944;2024-03-02T01:18:45;27.55;;;16.02;;
17141;SDS011;32805;53.556;9.944;2024-03-02T01:21:13;30.50;;;18.20;;
17141;SDS011;32805;53.556;9.944;2024-03-02T01:23:40;29.75;;;17.48;;
17141;SDS011;32805;53.556;9.944;2024-03-02T01:26:14;29.55;;;18.50;;
17141;SDS011;32805;53.556;9.944;2024-03-02T01:28:42;33.38;;;19.50;;
17141;SDS011;32805;53.556;9.944;2024-03-02T01:31:17;31.60;;;18.75;;
17141;SDS011;32805;53.556;9.944;2024-03-02T01:33:44;32.08;;;19.88;;
17141;SDS011;32805;53.556;9.944;2024-03-02T01:36:12;34.70;;;19.75;;
17141;SDS011;32805;53.556;9.944;2024-03-02T01:38:40;33.08;;;19.27;;
17141;SDS011;32805;53.556;9.944;2024-03-02T01:41:08;33.40;;;19.30;;
17141;SDS011;32805;53.556;9.944;2024-03-02T01:43:40;35.70;;;21.23;;
17141;SDS011;32805;53.556;9.944;2024-03-02T01:46:07;34.63;;;20.42;;
17141;SDS011;32805;53.556;9.944;2024-03-02T01:48:35;31.58;;;19.38;;
17141;SDS011;32805;53.556;9.944;2024-03-02T01:51:03;31.00;;;19.98;;
17141;SDS011;32805;53.556;9.944;2024-03-02T01:53:32;36.67;;;21.75;;
17141;SDS011;32805;53.556;9.944;2024-03-02T01:56:00;33.38;;;20.30;;
17141;SDS011;32805;53.556;9.944;2024-03-02T01:58:28;31.33;;;19.92;;
17141;SDS011;32805;53.556;9.944;2024-03-02T02:00:57;35.13;;;20.73;;
17141;SDS011;32805;53.556;9.944;2024-03-02T02:03:30;36.17;;;20.48;;
17141;SDS011;32805;53.556;9.944;2024-03-02T02:05:58;38.38;;;20.27;;
17141;SDS011;32805;53.556;9.944;2024-03-02T02:08:25;36.33;;;20.35;;
17141;SDS011;32805;53.556;9.944;2024-03-02T02:10:53;36.67;;;22.08;;
17141;SDS011;32805;53.556;9.944;2024-03-02T02:13:23;37.15;;;21.05;;
17141;SDS011;32805;53.556;9.944;2024-03-02T02:15:50;36.35;;;20.67;;
17141;SDS011;32805;53.556;9.944;2024-03-02T02:18:20;38.28;;;22.63;;
17141;SDS011;32805;53.556;9.944;2024-03-02T02:20:48;38.53;;;22.65;;
17141;SDS011;32805;53.556;9.944;2024-03-02T02:23:17;35.92;;;21.08;;
17141;SDS011;32805;53.556;9.944;2024-03-02T02:25:45;35.40;;;21.25;;
17141;SDS011;32805;53.556;9.944;2024-03-02T02:28:12;36.83;;;21.63;;
17141;SDS011;32805;53.556;9.944;2024-03-02T02:30:40;36.05;;;21.70;;
17141;SDS011;32805;53.556;9.944;2024-03-02T02:33:07;37.10;;;22.55;;
17141;SDS011;32805;53.556;9.944;2024-03-02T02:35:40;32.03;;;20.67;;
17141;SDS011;32805;53.556;9.944;2024-03-02T02:38:08;34.65;;;20.75;;
17141;SDS011;32805;53.556;9.944;2024-03-02T02:40:37;39.30;;;22.75;;
17141;SDS011;32805;53.556;9.944;2024-03-02T02:43:04;31.45;;;21.25;;
17141;SDS011;32805;53.556;9.944;2024-03-02T02:45:33;37.20;;;20.08;;
17141;SDS011;32805;53.556;9.944;2024-03-02T02:48:00;37.45;;;20.83;;
17141;SDS011;32805;53.556;9.944;2024-03-02T02:50:29;33.25;;;20.48;;
17141;SDS011;32805;53.556;9.944;2024-03-02T02:52:59;32.28;;;20.67;;
17141;SDS011;32805;53.556;9.944;2024-03-02T02:55:26;38.00;;;21.88;;
17141;SDS011;32805;53.556;9.944;2024-03-02T02:57:55;36.00;;;20.88;;
17141;SDS011;32805;53.556;9.944;2024-03-02T03:00:23;41.95;;;22.33;;
17141;SDS011;32805;53.556;9.944;2024-03-02T03:02:50;35.80;;;21.60;;
17141;SDS011;32805;53.556;9.944;2024-03-02T03:05:18;32.13;;;20.60;;
17141;SDS011;32805;53.556;9.944;2024-03-02T03:07:46;34.60;;;20.55;;
17141;SDS011;32805;53.556;9.944;2024-03-02T03:10:16;37.85;;;22.63;;
17141;SDS011;32805;53.556;9.944;2024-03-02T03:12:43;37.78;;;21.67;;
17141;SDS011;32805;53.556;9.944;2024-03-02T03:15:12;34.85;;;20.05;;
17141;SDS011;32805;53.556;9.944;2024-03-02T03:17:40;32.00;;;19.20;;
17141;SDS011;32805;53.556;9.944;2024-03-02T03:20:08;34.63;;;20.23;;
17141;SDS011;32805;53.556;9.944;2024-03-02T03:22:37;33.85;;;19.80;;
17141;SDS011;32805;53.556;9.944;2024-03-02T03:25:04;32.70;;;20.42;;
17141;SDS011;32805;53.556;9.944;2024-03-02T03:27:33;33.97;;;20.45;;
17141;SDS011;32805;53.556;9.944;2024-03-02T03:30:00;34.60;;;21.27;;
17141;SDS011;32805;53.556;9.944;2024-03-02T03:32:30;37.03;;;20.85;;
17141;SDS011;32805;53.556;9.944;2024-03-02T03:34:57;31.13;;;20.00;;
17141;SDS011;32805;53.556;9.944;2024-03-02T03:37:25;34.75;;;20.48;;
17141;SDS011;32805;53.556;9.944;2024-03-02T03:39:58;31.58;;;19.33;;
17141;SDS011;32805;53.556;9.944;2024-03-02T03:42:27;32.80;;;20.38;;
17141;SDS011;32805;53.556;9.944;2024-03-02T03:44:55;35.63;;;20.70;;
17141;SDS011;32805;53.556;9.944;2024-03-02T03:47:22;33.13;;;19.83;;
17141;SDS011;32805;53.556;9.944;2024-03-02T03:49:51;36.00;;;20.83;;
17141;SDS011;32805;53.556;9.944;2024-03-02T03:52:18;32.72;;;20.38;;
17141;SDS011;32805;53.556;9.944;2024-03-02T03:54:47;30.70;;;18.63;;
17141;SDS011;32805;53.556;9.944;2024-03-02T03:57:15;30.20;;;19.85;;
17141;SDS011;32805;53.556;9.944;2024-03-02T03:59:42;35.20;;;20.70;;
17141;SDS011;32805;53.556;9.944;2024-03-02T04:02:10;31.75;;;19.30;;
17141;SDS011;32805;53.556;9.944;2024-03-02T04:04:39;33.22;;;19.80;;
17141;SDS011;32805;53.556;9.944;2024-03-02T04:07:08;29.05;;;18.88;;
17141;SDS011;32805;53.556;9.944;2024-03-02T04:09:35;30.85;;;19.88;;
17141;SDS011;32805;53.556;9.944;2024-03-02T04:12:03;30.00;;;19.58;;
17141;SDS011;32805;53.556;9.944;2024-03-02T04:14:30;32.15;;;19.25;;
17141;SDS011;32805;53.556;9.944;2024-03-02T04:16:58;33.65;;;20.42;;
17141;SDS011;32805;53.556;9.944;2024-03-02T04:19:25;29.48;;;19.23;;
17141;SDS011;32805;53.556;9.944;2024-03-02T04:21:53;33.03;;;20.33;;
17141;SDS011;32805;53.556;9.944;2024-03-02T04:24:22;30.60;;;19.10;;
17141;SDS011;32805;53.556;9.944;2024-03-02T04:26:49;30.65;;;19.67;;
17141;SDS011;32805;53.556;9.944;2024-03-02T04:29:17;33.13;;;19.90;;
17141;SDS011;32805;53.556;9.944;2024-03-02T04:31:45;30.45;;;19.23;;
17141;SDS011;32805;53.556;9.944;2024-03-02T04:34:12;31.45;;;20.40;;
17141;SDS011;32805;53.556;9.944;2024-03-02T04:36:40;31.77;;;19.60;;
17141;SDS011;32805;53.556;9.944;2024-03-02T04:39:07;30.13;;;20.27;;
17141;SDS011;32805;53.556;9.944;2024-03-02T04:41:38;29.30;;;18.48;;
17141;SDS011;32805;53.556;9.944;2024-03-02T04:44:05;30.50;;;19.08;;
17141;SDS011;32805;53.556;9.944;2024-03-02T04:46:34;31.15;;;20.55;;
17141;SDS011;32805;53.556;9.944;2024-03-02T04:49:01;33.05;;;18.92;;
17141;SDS011;32805;53.556;9.944;2024-03-02T04:51:29;29.92;;;19.67;;
17141;SDS011;32805;53.556;9.944;2024-03-02T04:53:56;31.00;;;19.00;;
17141;SDS011;32805;53.556;9.944;2024-03-02T04:56:24;33.47;;;19.52;;
17141;SDS011;32805;53.556;9.944;2024-03-02T04:59:11;29.80;;;18.77;;
17141;SDS011;32805;53.556;9.944;2024-03-02T05:01:38;31.40;;;19.92;;
17141;SDS011;32805;53.556;9.944;2024-03-02T05:04:06;31.20;;;19.00;;
17141;SDS011;32805;53.556;9.944;2024-03-02T05:06:34;35.60;;;18.50;;
17141;SDS011;32805;53.556;9.944;2024-03-02T05:09:01;28.70;;;19.17;;
17141;SDS011;32805;53.556;9.944;2024-03-02T05:11:29;31.23;;;19.40;;
17141;SDS011;32805;53.556;9.944;2024-03-02T05:14:16;31.30;;;20.00;;
17141;SDS011;32805;53.556;9.944;2024-03-02T05:16:43;29.63;;;18.67;;
17141;SDS011;32805;53.556;9.944;2024-03-02T05:19:11;30.48;;;18.65;;
17141;SDS011;32805;53.556;9.944;2024-03-02T05:21:38;30.45;;;19.52;;
17141;SDS011;32805;53.556;9.944;2024-03-02T05:24:06;33.20;;;20.95;;
17141;SDS011;32805;53.556;9.944;2024-03-02T05:26:34;35.72;;;20.13;;
17141;SDS011;32805;53.556;9.944;2024-03-02T05:29:01;31.70;;;18.42;;
17141;SDS011;32805;53.556;9.944;2024-03-02T05:31:36;33.75;;;19.23;;
17141;SDS011;32805;53.556;9.944;2024-03-02T05:34:07;29.08;;;18.55;;
17141;SDS011;32805;53.556;9.944;2024-03-02T05:36:34;29.30;;;18.92;;
17141;SDS011;32805;53.556;9.944;2024-03-02T05:39:03;31.63;;;19.65;;
17141;SDS011;32805;53.556;9.944;2024-03-02T05:41:35;30.35;;;19.45;;
17141;SDS011;32805;53.556;9.944;2024-03-02T05:44:02;31.25;;;18.92;;
17141;SDS011;32805;53.556;9.944;2024-03-02T05:46:30;29.25;;;18.38;;
17141;SDS011;32805;53.556;9.944;2024-03-02T05:49:00;30.63;;;19.33;;
17141;SDS011;32805;53.556;9.944;2024-03-02T05:51:29;29.35;;;18.45;;
17141;SDS011;32805;53.556;9.944;2024-03-02T05:53:57;30.23;;;18.10;;
17141;SDS011;32805;53.556;9.944;2024-03-02T05:56:27;34.30;;;21.02;;
17141;SDS011;32805;53.556;9.944;2024-03-02T05:58:58;30.30;;;18.73;;
17141;SDS011;32805;53.556;9.944;2024-03-02T06:01:38;32.45;;;19.05;;
17141;SDS011;32805;53.556;9.944;2024-03-02T06:04:11;31.58;;;19.33;;
17141;SDS011;32805;53.556;9.944;2024-03-02T06:06:38;27.40;;;18.35;;
17141;SDS011;32805;53.556;9.944;2024-03-02T06:09:06;30.63;;;19.88;;
17141;SDS011;32805;53.556;9.944;2024-03-02T06:11:34;29.48;;;18.55;;
17141;SDS011;32805;53.556;9.944;2024-03-02T06:14:02;31.55;;;18.63;;
17141;SDS011;32805;53.556;9.944;2024-03-02T06:16:30;32.72;;;18.27;;
17141;SDS011;32805;53.556;9.944;2024-03-02T06:19:06;29.63;;;18.05;;
17141;SDS011;32805;53.556;9.944;2024-03-02T06:21:35;29.90;;;18.73;;
17141;SDS011;32805;53.556;9.944;2024-03-02T06:24:02;27.52;;;18.02;;
17141;SDS011;32805;53.556;9.944;2024-03-02T06:26:30;29.90;;;18.88;;
17141;SDS011;32805;53.556;9.944;2024-03-02T06:28:58;31.13;;;19.27;;
17141;SDS011;32805;53.556;9.944;2024-03-02T06:31:25;29.42;;;17.95;;
17141;SDS011;32805;53.556;9.944;2024-03-02T06:33:56;32.83;;;19.23;;
17141;SDS011;32805;53.556;9.944;2024-03-02T06:36:23;27.98;;;18.48;;
17141;SDS011;32805;53.556;9.944;2024-03-02T06:38:52;30.75;;;18.60;;
17141;SDS011;32805;53.556;9.944;2024-03-02T06:41:19;28.27;;;18.55;;
17141;SDS011;32805;53.556;9.944;2024-03-02T06:43:47;29.17;;;19.10;;
17141;SDS011;32805;53.556;9.944;2024-03-02T06:46:14;33.00;;;20.05;;
17141;SDS011;32805;53.556;9.944;2024-03-02T06:48:45;27.77;;;18.13;;
17141;SDS011;32805;53.556;9.944;2024-03-02T06:51:13;28.30;;;17.42;;
17141;SDS011;32805;53.556;9.944;2024-03-02T06:53:41;28.77;;;19.10;;
17141;SDS011;32805;53.556;9.944;2024-03-02T06:56:10;26.52;;;18.75;;
17141;SDS011;32805;53.556;9.944;2024-03-02T06:58:37;29.20;;;18.65;;
17141;SDS011;32805;53.556;9.944;2024-03-02T07:01:05;29.83;;;18.48;;
17141;SDS011;32805;53.556;9.944;2024-03-02T07:03:32;29.92;;;17.92;;
17141;SDS011;32805;53.556;9.944;2024-03-02T07:06:00;28.92;;;17.88;;
17141;SDS011;32805;53.556;9.944;2024-03-02T07:08:27;32.03;;;18.55;;
17141;SDS011;32805;53.556;9.944;2024-03-02T07:10:55;29.48;;;18.63;;
17141;SDS011;32805;53.556;9.944;2024-03-02T07:13:24;30.33;;;18.00;;
17141;SDS011;32805;53.556;9.944;2024-03-02T07:15:52;29.42;;;17.52;;
17141;SDS011;32805;53.556;9.944;2024-03-02T07:18:47;28.17;;;17.90;;
17141;SDS011;32805;53.556;9.944;2024-03-02T07:21:18;29.67;;;18.95;;
17141;SDS011;32805;53.556;9.944;2024-03-02T07:23:45;27.63;;;18.33;;
17141;SDS011;32805;53.556;9.944;2024-03-02T07:26:13;27.83;;;17.30;;
17141;SDS011;32805;53.556;9.944;2024-03-02T07:28:45;25.50;;;16.10;;
17141;SDS011;32805;53.556;9.944;2024-03-02T07:31:14;28.20;;;16.48;;
17141;SDS011;32805;53.556;9.944;2024-03-02T07:33:43;26.08;;;17.63;;
17141;SDS011;32805;53.556;9.944;2024-03-02T07:36:11;29.33;;;17.52;;
17141;SDS011;32805;53.556;9.944;2024-03-02T07:38:38;26.70;;;17.00;;
17141;SDS011;32805;53.556;9.944;2024-03-02T07:41:07;26.98;;;17.15;;
17141;SDS011;32805;53.556;9.944;2024-03-02T07:43:34;28.85;;;17.88;;
17141;SDS011;32805;53.556;9.944;2024-03-02T07:46:03;27.73;;;18.58;;
17141;SDS011;32805;53.556;9.944;2024-03-02T07:48:31;27.83;;;18.50;;
17141;SDS011;32805;53.556;9.944;2024-03-02T07:50:58;24.45;;;16.25;;
17141;SDS011;32805;53.556;9.944;2024-03-02T07:53:26;26.10;;;17.20;;
17141;SDS011;32805;53.556;9.944;2024-03-02T07:55:54;23.83;;;15.57;;
17141;SDS011;32805;53.556;9.944;2024-03-02T07:58:23;29.38;;;16.90;;
17141;SDS011;32805;53.556;9.944;2024-03-02T08:00:51;28.23;;;17.73;;
17141;SDS011;32805;53.556;9.944;2024-03-02T08:03:22;28.30;;;17.50;;
17141;SDS011;32805;53.556;9.944;2024-03-02T08:05:50;28.15;;;18.50;;
17141;SDS011;32805;53.556;9.944;2024-03-02T08:08:17;27.02;;;17.48;;
17141;SDS011;32805;53.556;9.944;2024-03-02T08:10:45;24.65;;;16.92;;
17141;SDS011;32805;53.556;9.944;2024-03-02T08:13:12;23.77;;;17.17;;
17141;SDS011;32805;53.556;9.944;2024-03-02T08:15:40;28.95;;;18.00;;
17141;SDS011;32805;53.556;9.944;2024-03-02T08:18:08;27.20;;;17.27;;
17141;SDS011;32805;53.556;9.944;2024-03-02T08:20:37;23.20;;;16.08;;
17141;SDS011;32805;53.556;9.944;2024-03-02T08:23:05;29.77;;;17.67;;
17141;SDS011;32805;53.556;9.944;2024-03-02T08:25:32;27.05;;;17.70;;
17141;SDS011;32805;53.556;9.944;2024-03-02T08:28:00;24.90;;;16.25;;
17141;SDS011;32805;53.556;9.944;2024-03-02T08:30:27;26.40;;;17.10;;
17141;SDS011;32805;53.556;9.944;2024-03-02T08:32:55;28.77;;;17.13;;
17141;SDS011;32805;53.556;9.944;2024-03-02T08:35:23;25.80;;;17.13;;
17141;SDS011;32805;53.556;9.944;2024-03-02T08:37:52;23.58;;;16.48;;
17141;SDS011;32805;53.556;9.944;2024-03-02T08:40:19;25.27;;;16.80;;
17141;SDS011;32805;53.556;9.944;2024-03-02T08:42:47;27.90;;;16.50;;
17141;SDS011;32805;53.556;9.944;2024-03-02T08:45:14;25.15;;;17.25;;
17141;SDS011;32805;53.556;9.944;2024-03-02T08:47:43;24.83;;;17.15;;
17141;SDS011;32805;53.556;9.944;2024-03-02T08:50:10;24.35;;;17.05;;
17141;SDS011;32805;53.556;9.944;2024-03-02T08:52:38;25.13;;;16.88;;
17141;SDS011;32805;53.556;9.944;2024-03-02T08:55:07;26.70;;;17.10;;
17141;SDS011;32805;53.556;9.944;2024-03-02T08:57:36;26.60;;;17.15;;
17141;SDS011;32805;53.556;9.944;2024-03-02T09:00:03;25.60;;;16.38;;
17141;SDS011;32805;53.556;9.944;2024-03-02T09:02:34;24.35;;;15.57;;
17141;SDS011;32805;53.556;9.944;2024-03-02T09:05:01;23.17;;;17.10;;
17141;SDS011;32805;53.556;9.944;2024-03-02T09:07:29;24.80;;;15.95;;
17141;SDS011;32805;53.556;9.944;2024-03-02T09:09:56;27.63;;;17.10;;
17141;SDS011;32805;53.556;9.944;2024-03-02T09:12:25;24.90;;;16.52;;
17141;SDS011;32805;53.556;9.944;2024-03-02T09:14:53;26.42;;;16.60;;
17141;SDS011;32805;53.556;9.944;2024-03-02T09:17:20;20.42;;;14.23;;
17141;SDS011;32805;53.556;9.944;2024-03-02T09:19:48;20.55;;;14.32;;
17141;SDS011;32805;53.556;9.944;2024-03-02T09:22:19;24.45;;;15.20;;
17141;SDS011;32805;53.556;9.944;2024-03-02T09:24:46;23.15;;;15.65;;
17141;SDS011;32805;53.556;9.944;2024-03-02T09:27:14;24.10;;;14.98;;
17141;SDS011;32805;53.556;9.944;2024-03-02T09:29:43;19.58;;;13.70;;
17141;SDS011;32805;53.556;9.944;2024-03-02T09:32:12;21.90;;;14.38;;
17141;SDS011;32805;53.556;9.944;2024-03-02T09:34:40;20.48;;;14.27;;
17141;SDS011;32805;53.556;9.944;2024-03-02T09:37:07;19.25;;;14.07;;
17141;SDS011;32805;53.556;9.944;2024-03-02T09:39:35;23.80;;;15.23;;
17141;SDS011;32805;53.556;9.944;2024-03-02T09:42:02;21.85;;;14.55;;
17141;SDS011;32805;53.556;9.944;2024-03-02T09:44:31;23.20;;;14.90;;
17141;SDS011;32805;53.556;9.944;2024-03-02T09:47:01;19.77;;;13.85;;
17141;SDS011;32805;53.556;9.944;2024-03-02T09:49:28;24.70;;;15.82;;
17141;SDS011;32805;53.556;9.944;2024-03-02T09:51:56;20.77;;;14.02;;
17141;SDS011;32805;53.556;9.944;2024-03-02T09:54:24;20.02;;;14.40;;
17141;SDS011;32805;53.556;9.944;2024-03-02T09:56:51;19.20;;;13.23;;
17141;SDS011;32805;53.556;9.944;2024-03-02T09:59:19;19.58;;;13.48;;
17141;SDS011;32805;53.556;9.944;2024-03-02T10:01:57;21.48;;;12.52;;
17141;SDS011;32805;53.556;9.944;2024-03-02T10:04:27;18.95;;;12.77;;
17141;SDS011;32805;53.556;9.944;2024-03-02T10:07:09;19.52;;;12.57;;
17141;SDS011;32805;53.556;9.944;2024-03-02T10:09:37;17.45;;;12.80;;
17141;SDS011;32805;53.556;9.944;2024-03-02T10:12:07;18.83;;;13.30;;
17141;SDS011;32805;53.556;9.944;2024-03-02T10:14:34;20.27;;;12.48;;
17141;SDS011;32805;53.556;9.944;2024-03-02T10:17:02;18.63;;;13.32;;
17141;SDS011;32805;53.556;9.944;2024-03-02T10:19:32;18.85;;;12.68;;
17141;SDS011;32805;53.556;9.944;2024-03-02T10:22:01;20.48;;;13.18;;
17141;SDS011;32805;53.556;9.944;2024-03-02T10:24:34;17.63;;;12.63;;
17141;SDS011;32805;53.556;9.944;2024-03-02T10:27:05;16.67;;;12.27;;
17141;SDS011;32805;53.556;9.944;2024-03-02T10:29:36;15.63;;;11.52;;
17141;SDS011;32805;53.556;9.944;2024-03-02T10:32:04;17.13;;;11.77;;
17141;SDS011;32805;53.556;9.944;2024-03-02T10:34:34;16.85;;;11.27;;
17141;SDS011;32805;53.556;9.944;2024-03-02T10:37:02;17.55;;;12.10;;
17141;SDS011;32805;53.556;9.944;2024-03-02T10:39:32;15.57;;;10.85;;
17141;SDS011;32805;53.556;9.944;2024-03-02T10:42:01;19.75;;;11.85;;
17141;SDS011;32805;53.556;9.944;2024-03-02T10:44:30;15.07;;;10.90;;
17141;SDS011;32805;53.556;9.944;2024-03-02T10:46:58;17.02;;;11.20;;
17141;SDS011;32805;53.556;9.944;2024-03-02T10:49:27;17.08;;;12.65;;
17141;SDS011;32805;53.556;9.944;2024-03-02T10:51:57;15.00;;;11.13;;
17141;SDS011;32805;53.556;9.944;2024-03-02T10:54:25;14.75;;;10.27;;
17141;SDS011;32805;53.556;9.944;2024-03-02T10:56:56;14.35;;;11.18;;
17141;SDS011;32805;53.556;9.944;2024-03-02T10:59:32;13.18;;;9.50;;
17141;SDS011;32805;53.556;9.944;2024-03-02T11:02:00;12.40;;;9.10;;
17141;SDS011;32805;53.556;9.944;2024-03-02T11:04:31;11.60;;;8.00;;
17141;SDS011;32805;53.556;9.944;2024-03-02T11:07:04;12.23;;;8.70;;
17141;SDS011;32805;53.556;9.944;2024-03-02T11:09:32;11.55;;;8.35;;
17141;SDS011;32805;53.556;9.944;2024-03-02T11:12:02;11.68;;;8.40;;
17141;SDS011;32805;53.556;9.944;2024-03-02T11:14:30;11.23;;;7.43;;
17141;SDS011;32805;53.556;9.944;2024-03-02T11:16:58;13.18;;;8.57;;
17141;SDS011;32805;53.556;9.944;2024-03-02T11:19:26;11.70;;;9.05;;
17141;SDS011;32805;53.556;9.944;2024-03-02T11:21:54;12.98;;;9.88;;
17141;SDS011;32805;53.556;9.944;2024-03-02T11:24:29;12.05;;;7.38;;
17141;SDS011;32805;53.556;9.944;2024-03-02T11:27:04;12.23;;;7.90;;
17141;SDS011;32805;53.556;9.944;2024-03-02T11:29:47;11.40;;;8.45;;
17141;SDS011;32805;53.556;9.944;2024-03-02T11:32:15;9.45;;;6.70;;
17141;SDS011;32805;53.556;9.944;2024-03-02T11:34:45;10.15;;;7.35;;
17141;SDS011;32805;53.556;9.944;2024-03-02T11:37:14;10.05;;;6.65;;
17141;SDS011;32805;53.556;9.944;2024-03-02T11:39:43;10.80;;;7.53;;
17141;SDS011;32805;53.556;9.944;2024-03-02T11:42:12;10.23;;;8.15;;
17141;SDS011;32805;53.556;9.944;2024-03-02T11:44:42;11.40;;;8.10;;
17141;SDS011;32805;53.556;9.944;2024-03-02T11:47:11;12.80;;;8.02;;
17141;SDS011;32805;53.556;9.944;2024-03-02T11:49:41;12.75;;;8.27;;
17141;SDS011;32805;53.556;9.944;2024-03-02T11:52:09;13.20;;;8.68;;
17141;SDS011;32805;53.556;9.944;2024-03-02T11:54:37;11.60;;;8.50;;
17141;SDS011;32805;53.556;9.944;2024-03-02T11:57:07;9.55;;;7.50;;
17141;SDS011;32805;53.556;9.944;2024-03-02T11:59:35;10.93;;;7.45;;
17141;SDS011;32805;53.556;9.944;2024-03-02T12:02:03;10.95;;;7.40;;
17141;SDS011;32805;53.556;9.944;2024-03-02T12:04:30;10.30;;;7.65;;
17141;SDS011;32805;53.556;9.944;2024-03-02T12:06:58;10.57;;;7.57;;
17141;SDS011;32805;53.556;9.944;2024-03-02T12:09:27;10.98;;;7.10;;
17141;SDS011;32805;53.556;9.944;2024-03-02T12:12:01;11.15;;;6.97;;
17141;SDS011;32805;53.556;9.944;2024-03-02T12:14:31;9.55;;;7.43;;
17141;SDS011;32805;53.556;9.944;2024-03-02T12:16:59;7.88;;;6.90;;
17141;SDS011;32805;53.556;9.944;2024-03-02T12:19:27;11.75;;;7.30;;
17141;SDS011;32805;53.556;9.944;2024-03-02T12:21:53;10.40;;;6.88;;
17141;SDS011;32805;53.556;9.944;2024-03-02T12:24:21;8.43;;;6.82;;
17141;SDS011;32805;53.556;9.944;2024-03-02T12:26:49;9.38;;;7.10;;
17141;SDS011;32805;53.556;9.944;2024-03-02T12:29:17;11.38;;;7.65;;
17141;SDS011;32805;53.556;9.944;2024-03-02T12:31:47;8.05;;;6.82;;
17141;SDS011;32805;53.556;9.944;2024-03-02T12:34:15;9.63;;;7.43;;
17141;SDS011;32805;53.556;9.944;2024-03-02T12:36:43;10.50;;;7.07;;
17141;SDS011;32805;53.556;9.944;2024-03-02T12:39:13;8.65;;;6.25;;
17141;SDS011;32805;53.556;9.944;2024-03-02T12:41:41;19.10;;;7.13;;
17141;SDS011;32805;53.556;9.944;2024-03-02T12:44:08;9.48;;;6.38;;
17141;SDS011;32805;53.556;9.944;2024-03-02T12:46:36;9.15;;;6.43;;
17141;SDS011;32805;53.556;9.944;2024-03-02T12:49:09;10.38;;;6.60;;
17141;SDS011;32805;53.556;9.944;2024-03-02T12:51:38;8.95;;;6.22;;
17141;SDS011;32805;53.556;9.944;2024-03-02T12:54:07;7.75;;;5.80;;
17141;SDS011;32805;53.556;9.944;2024-03-02T12:56:38;8.02;;;5.80;;
17141;SDS011;32805;53.556;9.944;2024-03-02T12:59:05;8.50;;;6.50;;
17141;SDS011;32805;53.556;9.944;2024-03-02T13:01:33;9.98;;;6.40;;
17141;SDS011;32805;53.556;9.944;2024-03-02T13:04:01;9.23;;;6.32;;
17141;SDS011;32805;53.556;9.944;2024-03-02T13:06:32;8.38;;;5.53;;
17141;SDS011;32805;53.556;9.944;2024-03-02T13:09:00;10.00;;;6.50;;
17141;SDS011;32805;53.556;9.944;2024-03-02T13:11:29;7.95;;;5.70;;
17141;SDS011;32805;53.556;9.944;2024-03-02T13:13:56;8.65;;;6.15;;
17141;SDS011;32805;53.556;9.944;2024-03-02T13:16:24;8.70;;;6.53;;
17141;SDS011;32805;53.556;9.944;2024-03-02T13:19:01;8.85;;;6.60;;
17141;SDS011;32805;53.556;9.944;2024-03-02T13:21:33;8.25;;;5.95;;
17141;SDS011;32805;53.556;9.944;2024-03-02T13:24:01;9.05;;;6.53;;
17141;SDS011;32805;53.556;9.944;2024-03-02T13:26:31;8.43;;;6.65;;
17141;SDS011;32805;53.556;9.944;2024-03-02T13:28:58;9.73;;;6.68;;
17141;SDS011;32805;53.556;9.944;2024-03-02T13:31:26;11.38;;;7.43;;
17141;SDS011;32805;53.556;9.944;2024-03-02T13:33:54;10.43;;;6.97;;
17141;SDS011;32805;53.556;9.944;2024-03-02T13:36:22;9.52;;;6.95;;
17141;SDS011;32805;53.556;9.944;2024-03-02T13:38:51;8.20;;;6.47;;
17141;SDS011;32805;53.556;9.944;2024-03-02T13:41:19;9.57;;;6.50;;
17141;SDS011;32805;53.556;9.944;2024-03-02T13:43:46;8.88;;;6.43;;
17141;SDS011;32805;53.556;9.944;2024-03-02T13:46:16;9.52;;;6.75;;
17141;SDS011;32805;53.556;9.944;2024-03-02T13:48:44;11.07;;;6.57;;
17141;SDS011;32805;53.556;9.944;2024-03-02T13:51:11;9.68;;;6.55;;
17141;SDS011;32805;53.556;9.944;2024-03-02T13:53:39;9.13;;;6.40;;
17141;SDS011;32805;53.556;9.944;2024-03-02T13:56:08;8.93;;;6.40;;
17141;SDS011;32805;53.556;9.944;2024-03-02T13:58:36;8.10;;;6.63;;
17141;SDS011;32805;53.556;9.944;2024-03-02T14:01:04;9.43;;;6.95;;
17141;SDS011;32805;53.556;9.944;2024-03-02T14:03:32;11.85;;;7.32;;
17141;SDS011;32805;53.556;9.944;2024-03-02T14:05:59;12.55;;;8.93;;
17141;SDS011;32805;53.556;9.944;2024-03-02T14:08:27;10.88;;;7.70;;
17141;SDS011;32805;53.556;9.944;2024-03-02T14:10:54;11.10;;;7.05;;
17141;SDS011;32805;53.556;9.944;2024-03-02T14:13:27;11.00;;;7.60;;
17141;SDS011;32805;53.556;9.944;2024-03-02T14:15:55;11.10;;;8.10;;
17141;SDS011;32805;53.556;9.944;2024-03-02T14:18:24;10.13;;;7.40;;
17141;SDS011;32805;53.556;9.944;2024-03-02T14:20:52;11.85;;;6.90;;
17141;SDS011;32805;53.556;9.944;2024-03-02T14:23:19;10.32;;;6.88;;
17141;SDS011;32805;53.556;9.944;2024-03-02T14:25:47;10.13;;;7.85;;
17141;SDS011;32805;53.556;9.944;2024-03-02T14:28:16;11.43;;;7.18;;
17141;SDS011;32805;53.556;9.944;2024-03-02T14:31:06;10.77;;;7.82;;
17141;SDS011;32805;53.556;9.944;2024-03-02T14:33:34;10.05;;;7.32;;
17141;SDS011;32805;53.556;9.944;2024-03-02T14:36:02;10.10;;;7.82;;